createdAt,value
2019-05-22T00:00:49.862Z,99.90
2019-05-22T00:03:21.326Z,99.90
2019-05-22T00:05:50.294Z,99.90
2019-05-22T00:08:19.445Z,99.90
2019-05-22T00:10:49.671Z,99.90
2019-05-22T00:13:19.955Z,99.90
2019-05-22T00:15:48.435Z,99.90
2019-05-22T00:18:18.213Z,99.90
2019-05-22T00:20:46.785Z,99.90
2019-05-22T00:23:15.403Z,99.90
2019-05-22T00:25:43.760Z,99.90
2019-05-22T00:28:12.580Z,99.90
2019-05-22T00:30:44.331Z,99.90
2019-05-22T00:33:12.395Z,99.90
2019-05-22T00:35:41.946Z,99.90
2019-05-22T00:38:11.607Z,99.90
2019-05-22T00:40:44.673Z,99.90
2019-05-22T00:43:14.465Z,99.90
2019-05-22T00:45:43.076Z,99.90
2019-05-22T00:48:11.434Z,99.90
2019-05-22T00:50:44.934Z,99.90
2019-05-22T00:53:30.574Z,99.90
2019-05-22T00:56:23.127Z,99.90
2019-05-22T00:58:58.078Z,99.90
2019-05-22T01:01:32.457Z,99.90
2019-05-22T01:04:02.102Z,99.90
2019-05-22T01:06:30.461Z,99.90
2019-05-22T01:08:59.975Z,99.90
2019-05-22T01:11:29.410Z,99.90
2019-05-22T01:13:57.281Z,99.90
2019-05-22T01:16:27.115Z,99.90
2019-05-22T01:18:55.057Z,99.90
2019-05-22T01:21:24.685Z,99.90
2019-05-22T01:23:53.457Z,99.90
2019-05-22T01:26:22.293Z,99.90
2019-05-22T01:28:50.231Z,99.90
2019-05-22T01:31:24.693Z,99.90
2019-05-22T01:34:00.123Z,99.90
2019-05-22T01:36:44.576Z,99.90
2019-05-22T01:39:20.876Z,99.90
2019-05-22T01:41:50.364Z,99.90
2019-05-22T01:44:18.943Z,99.90
2019-05-22T01:46:46.855Z,99.90
2019-05-22T01:49:14.785Z,99.90
2019-05-22T01:51:42.699Z,99.90
2019-05-22T01:54:11.281Z,99.90
2019-05-22T01:56:39.627Z,99.90
2019-05-22T01:59:08.342Z,99.90
2019-05-22T02:01:36.261Z,99.90
2019-05-22T02:04:05.781Z,99.90
2019-05-22T02:06:34.059Z,99.90
2019-05-22T02:09:03.606Z,99.90
2019-05-22T02:11:33.389Z,99.90
2019-05-22T02:14:02.214Z,99.90
2019-05-22T02:16:30.614Z,99.90
2019-05-22T02:18:58.627Z,99.90
2019-05-22T02:21:26.781Z,99.90
2019-05-22T02:23:56.305Z,99.90
2019-05-22T02:26:24.614Z,99.90
2019-05-22T02:28:52.900Z,99.90
2019-05-22T02:31:23.299Z,99.90
2019-05-22T02:34:06.835Z,99.90
2019-05-22T02:36:36.631Z,99.90
2019-05-22T02:39:05.200Z,99.90
2019-05-22T02:41:34.749Z,99.90
2019-05-22T02:44:03.379Z,99.90
2019-05-22T02:46:31.945Z,99.90
2019-05-22T02:49:01.576Z,99.90
2019-05-22T02:51:29.870Z,99.90
2019-05-22T02:53:57.863Z,99.90
2019-05-22T02:56:25.890Z,99.90
2019-05-22T02:58:55.586Z,99.90
2019-05-22T03:01:24.314Z,99.90
2019-05-22T03:03:52.482Z,99.90
2019-05-22T03:06:21.498Z,99.90
2019-05-22T03:08:49.452Z,99.90
2019-05-22T03:11:19.447Z,99.90
2019-05-22T03:13:47.431Z,99.90
2019-05-22T03:16:15.410Z,99.90
2019-05-22T03:18:44.282Z,99.90
2019-05-22T03:21:12.251Z,99.90
2019-05-22T03:23:40.221Z,99.90
2019-05-22T03:26:09.651Z,99.90
2019-05-22T03:28:38.811Z,99.90
2019-05-22T03:31:07.009Z,99.90
2019-05-22T03:33:35.687Z,99.90
2019-05-22T03:36:05.382Z,99.90
2019-05-22T03:38:34.390Z,99.90
2019-05-22T03:41:03.493Z,99.90
2019-05-22T03:43:31.926Z,99.90
2019-05-22T03:46:00.633Z,99.90
2019-05-22T03:48:28.618Z,99.90
2019-05-22T03:50:56.970Z,99.90
2019-05-22T03:53:24.921Z,99.90
2019-05-22T03:55:53.503Z,99.90
2019-05-22T03:58:22.186Z,99.90
2019-05-22T04:00:50.537Z,99.90
2019-05-22T04:03:19.593Z,99.90
2019-05-22T04:05:48.695Z,99.90
2019-05-22T04:08:17.332Z,99.90
2019-05-22T04:10:46.695Z,99.90
2019-05-22T04:13:16.009Z,99.90
2019-05-22T04:15:45.065Z,99.90
2019-05-22T04:18:14.741Z,99.90
2019-05-22T04:20:42.721Z,99.90
2019-05-22T04:23:10.885Z,99.90
2019-05-22T04:25:38.842Z,99.90
2019-05-22T04:28:07.042Z,99.90
2019-05-22T04:30:35.138Z,99.90
2019-05-22T04:33:03.254Z,99.90
2019-05-22T04:35:32.434Z,99.90
2019-05-22T04:38:00.421Z,99.90
2019-05-22T04:40:29.118Z,99.90
2019-05-22T04:42:58.097Z,99.90
2019-05-22T04:45:26.758Z,99.90
2019-05-22T04:47:55.098Z,99.90
2019-05-22T04:50:23.287Z,99.90
2019-05-22T04:52:51.539Z,99.90
2019-05-22T04:55:19.900Z,99.90
2019-05-22T04:57:48.282Z,99.90
2019-05-22T05:00:16.622Z,99.90
2019-05-22T05:02:44.732Z,99.90
2019-05-22T05:05:13.246Z,99.90
2019-05-22T05:07:41.796Z,99.90
2019-05-22T05:10:10.086Z,99.90
2019-05-22T05:12:39.756Z,99.90
2019-05-22T05:15:07.894Z,99.90
2019-05-22T05:17:36.511Z,99.90
2019-05-22T05:20:04.519Z,99.90
2019-05-22T05:22:35.801Z,99.90
2019-05-22T05:25:03.802Z,99.90
2019-05-22T05:27:31.969Z,99.90
2019-05-22T05:30:00.046Z,99.90
2019-05-22T05:32:28.071Z,99.90
2019-05-22T05:34:55.987Z,99.90
2019-05-22T05:37:24.976Z,99.90
2019-05-22T05:39:52.893Z,99.90
2019-05-22T05:42:20.844Z,99.90
2019-05-22T05:44:48.767Z,99.90
2019-05-22T05:47:16.678Z,99.90
2019-05-22T05:49:44.685Z,99.90
2019-05-22T05:52:13.268Z,99.90
2019-05-22T05:54:41.704Z,99.90
2019-05-22T05:57:09.697Z,99.90
2019-05-22T05:59:37.704Z,99.90
2019-05-22T06:02:06.407Z,99.90
2019-05-22T06:04:35.435Z,99.90
2019-05-22T06:07:04.306Z,99.90
2019-05-22T06:09:32.477Z,99.90
2019-05-22T06:12:05.199Z,99.90
2019-05-22T06:14:32.187Z,99.90
2019-05-22T06:17:01.790Z,99.90
2019-05-22T06:19:29.906Z,99.90
2019-05-22T06:21:58.302Z,99.90
2019-05-22T06:24:27.993Z,99.90
2019-05-22T06:26:56.001Z,99.90
2019-05-22T06:29:27.875Z,99.90
2019-05-22T06:31:54.210Z,99.90
2019-05-22T06:34:22.636Z,99.90
2019-05-22T06:36:50.679Z,99.90
2019-05-22T06:39:19.665Z,99.90
2019-05-22T06:41:47.567Z,99.90
2019-05-22T06:44:15.846Z,99.90
2019-05-22T06:46:43.795Z,99.90
2019-05-22T06:49:11.932Z,99.90
2019-05-22T06:51:39.885Z,99.90
2019-05-22T06:54:07.799Z,99.90
2019-05-22T06:56:35.677Z,99.90
2019-05-22T06:59:03.589Z,99.90
2019-05-22T07:01:31.496Z,99.90
2019-05-22T07:03:59.660Z,99.90
2019-05-22T07:06:27.974Z,99.90
2019-05-22T07:08:55.848Z,99.90
2019-05-22T07:11:23.731Z,99.90
2019-05-22T07:13:51.764Z,99.90
2019-05-22T07:16:19.759Z,99.90
2019-05-22T07:18:48.466Z,99.90
2019-05-22T07:21:16.412Z,99.90
2019-05-22T07:23:44.304Z,99.90
2019-05-22T07:26:12.285Z,99.90
2019-05-22T07:28:40.299Z,99.90
2019-05-22T07:31:08.584Z,99.90
2019-05-22T07:33:37.157Z,99.90
2019-05-22T07:36:10.081Z,99.90
2019-05-22T07:38:35.759Z,99.90
2019-05-22T07:41:03.728Z,99.90
2019-05-22T07:43:32.237Z,99.90
2019-05-22T07:46:01.299Z,99.90
2019-05-22T07:48:30.183Z,99.90
2019-05-22T07:50:58.199Z,99.90
2019-05-22T07:53:26.143Z,99.90
2019-05-22T07:55:54.789Z,99.90
2019-05-22T07:58:23.002Z,99.90
2019-05-22T08:00:56.665Z,99.90
2019-05-22T08:03:25.099Z,99.90
2019-05-22T08:05:53.089Z,99.90
2019-05-22T08:08:21.038Z,99.90
2019-05-22T08:10:48.930Z,99.90
2019-05-22T08:13:16.859Z,99.90
2019-05-22T08:15:47.920Z,99.90
2019-05-22T08:18:14.397Z,99.90
2019-05-22T08:20:42.386Z,99.90
2019-05-22T08:23:10.561Z,99.90
2019-05-22T08:25:38.537Z,99.90
2019-05-22T08:28:06.734Z,99.90
2019-05-22T08:30:34.726Z,99.90
2019-05-22T08:33:03.280Z,99.90
2019-05-22T08:35:31.635Z,99.90
2019-05-22T08:38:00.482Z,99.90
2019-05-22T08:40:28.960Z,99.90
2019-05-22T08:42:56.855Z,99.90
2019-05-22T08:45:24.946Z,99.90
2019-05-22T08:47:52.997Z,99.90
2019-05-22T08:50:22.622Z,99.90
2019-05-22T08:52:51.393Z,99.90
2019-05-22T08:55:20.061Z,99.90
2019-05-22T08:57:47.967Z,99.90
2019-05-22T09:00:18.183Z,99.90
2019-05-22T09:02:46.061Z,99.90
2019-05-22T09:05:13.977Z,99.90
2019-05-22T09:07:41.991Z,99.90
2019-05-22T09:10:11.274Z,99.90
2019-05-22T09:12:39.281Z,99.90
2019-05-22T09:15:07.199Z,99.90
2019-05-22T09:17:35.155Z,99.90
2019-05-22T09:20:03.216Z,99.90
2019-05-22T09:22:40.560Z,99.90
2019-05-22T09:25:02.849Z,99.90
2019-05-22T09:27:31.375Z,99.90
2019-05-22T09:29:59.266Z,99.90
2019-05-22T09:32:27.148Z,99.90
2019-05-22T09:34:55.609Z,99.90
2019-05-22T09:37:23.582Z,99.90
2019-05-22T09:39:51.548Z,99.90
2019-05-22T09:42:19.733Z,99.90
2019-05-22T09:44:47.800Z,99.90
2019-05-22T09:47:16.169Z,99.90
2019-05-22T09:49:44.145Z,99.90
2019-05-22T09:52:12.222Z,99.90
2019-05-22T09:54:40.667Z,99.90
2019-05-22T09:57:08.905Z,99.90
2019-05-22T09:59:36.856Z,99.90
2019-05-22T10:02:05.309Z,99.90
2019-05-22T10:04:33.644Z,99.90
2019-05-22T10:07:01.602Z,99.90
2019-05-22T10:09:30.154Z,99.90
2019-05-22T10:11:58.070Z,99.90
2019-05-22T10:14:26.045Z,99.90
2019-05-22T10:16:54.256Z,99.90
2019-05-22T10:19:22.532Z,99.90
2019-05-22T10:21:51.459Z,99.90
2019-05-22T10:24:20.312Z,99.90
2019-05-22T10:26:48.641Z,99.90
2019-05-22T10:29:16.722Z,99.90
2019-05-22T10:31:44.651Z,99.90
2019-05-22T10:34:12.603Z,99.90
2019-05-22T10:36:43.077Z,99.90
2019-05-22T10:39:10.083Z,99.90
2019-05-22T10:41:38.391Z,99.90
2019-05-22T10:44:06.899Z,99.90
2019-05-22T10:46:34.989Z,99.90
2019-05-22T10:49:02.884Z,99.90
2019-05-22T10:51:30.754Z,99.50
2019-05-22T10:53:58.866Z,99.90
2019-05-22T10:56:27.009Z,96.70
2019-05-22T10:58:55.872Z,99.20
2019-05-22T11:01:24.077Z,96.50
2019-05-22T11:03:52.229Z,96.00
2019-05-22T11:06:20.188Z,95.70
2019-05-22T11:08:48.305Z,97.00
2019-05-22T11:11:16.711Z,94.40
2019-05-22T11:14:00.123Z,93.90
2019-05-22T11:16:14.324Z,91.50
2019-05-22T11:18:42.771Z,93.70
2019-05-22T11:21:11.628Z,94.00
2019-05-22T11:23:51.118Z,93.30
2019-05-22T11:26:09.348Z,90.60
2019-05-22T11:28:37.315Z,93.50
2019-05-22T11:31:06.871Z,93.70
2019-05-22T11:33:34.833Z,88.10
2019-05-22T11:36:03.483Z,91.20
2019-05-22T11:38:31.351Z,92.30
2019-05-22T11:41:00.100Z,89.50
2019-05-22T11:43:28.295Z,90.50
2019-05-22T11:45:56.171Z,91.00
2019-05-22T11:48:24.085Z,88.00
2019-05-22T11:50:52.877Z,81.30
2019-05-22T11:53:20.765Z,79.20
2019-05-22T11:55:48.729Z,80.30
2019-05-22T11:58:16.909Z,86.30
2019-05-22T12:00:45.147Z,86.30
2019-05-22T12:03:13.012Z,85.10
2019-05-22T12:05:41.470Z,77.70
2019-05-22T12:08:09.430Z,83.10
2019-05-22T12:10:38.134Z,76.60
2019-05-22T12:13:06.128Z,75.00
2019-05-22T12:15:35.176Z,76.10
2019-05-22T12:18:03.531Z,69.50
2019-05-22T12:20:31.573Z,70.50
2019-05-22T12:22:59.526Z,74.30
2019-05-22T12:25:27.865Z,75.30
2019-05-22T12:27:55.900Z,68.10
2019-05-22T12:30:23.803Z,70.70
2019-05-22T12:32:52.545Z,75.40
2019-05-22T12:35:20.806Z,66.10
2019-05-22T12:37:48.788Z,64.00
2019-05-22T12:40:17.281Z,67.60
2019-05-22T12:42:45.676Z,66.30
2019-05-22T12:45:13.693Z,66.70
2019-05-22T12:47:41.556Z,70.90
2019-05-22T12:50:10.398Z,66.10
2019-05-22T12:52:38.761Z,68.80
2019-05-22T12:55:07.467Z,66.00
2019-05-22T12:57:35.535Z,67.20
2019-05-22T13:00:04.822Z,65.80
2019-05-22T13:02:32.752Z,61.40
2019-05-22T13:05:00.660Z,66.50
2019-05-22T13:07:29.079Z,64.10
2019-05-22T13:09:57.425Z,62.20
2019-05-22T13:12:25.382Z,66.60
2019-05-22T13:15:08.217Z,68.90
2019-05-22T13:17:23.558Z,67.70
2019-05-22T13:19:51.523Z,66.20
2019-05-22T13:22:20.490Z,66.50
2019-05-22T13:24:48.485Z,66.60
2019-05-22T13:27:17.619Z,63.70
2019-05-22T13:29:45.843Z,68.40
2019-05-22T13:32:14.224Z,66.40
2019-05-22T13:34:42.141Z,67.00
2019-05-22T13:37:11.184Z,59.50
2019-05-22T13:39:39.145Z,63.20
2019-05-22T13:42:07.117Z,62.70
2019-05-22T13:44:35.107Z,63.40
2019-05-22T13:47:03.475Z,64.70
2019-05-22T13:49:32.988Z,59.90
2019-05-22T13:52:00.977Z,64.70
2019-05-22T13:54:29.523Z,61.20
2019-05-22T13:56:57.442Z,59.00
2019-05-22T13:59:25.415Z,60.80
2019-05-22T14:01:53.641Z,61.60
2019-05-22T14:04:21.596Z,60.80
2019-05-22T14:06:50.270Z,62.90
2019-05-22T14:09:21.432Z,60.00
2019-05-22T14:11:50.528Z,63.70
2019-05-22T14:14:18.517Z,61.90
2019-05-22T14:16:49.133Z,59.50
2019-05-22T14:19:16.164Z,59.90
2019-05-22T14:21:50.950Z,57.10
2019-05-22T14:24:13.810Z,58.80
2019-05-22T14:26:41.698Z,60.50
2019-05-22T14:29:09.699Z,59.00
2019-05-22T14:31:37.709Z,56.50
2019-05-22T14:34:05.647Z,59.90
2019-05-22T14:36:33.678Z,58.70
2019-05-22T14:39:01.543Z,60.50
2019-05-22T14:41:29.428Z,57.90
2019-05-22T14:43:57.787Z,53.60
2019-05-22T14:46:25.672Z,53.60
2019-05-22T14:48:53.994Z,49.60
2019-05-22T14:51:23.378Z,54.80
2019-05-22T14:53:52.152Z,60.00
2019-05-22T14:56:20.042Z,55.20
2019-05-22T14:58:48.367Z,55.30
2019-05-22T15:01:16.659Z,55.50
2019-05-22T15:03:44.740Z,55.50
2019-05-22T15:06:12.849Z,53.90
2019-05-22T15:08:40.948Z,51.20
2019-05-22T15:11:08.917Z,50.00
2019-05-22T15:13:36.960Z,48.80
2019-05-22T15:16:04.927Z,51.00
2019-05-22T15:18:32.868Z,51.80
2019-05-22T15:21:02.336Z,52.40
2019-05-22T15:23:31.259Z,52.20
2019-05-22T15:25:59.224Z,56.30
2019-05-22T15:28:27.285Z,56.90
2019-05-22T15:30:55.478Z,58.10
2019-05-22T15:33:23.483Z,58.40
2019-05-22T15:35:51.409Z,56.90
2019-05-22T15:38:19.948Z,54.60
2019-05-22T15:40:48.350Z,53.00
2019-05-22T15:43:16.724Z,55.00
2019-05-22T15:45:45.374Z,53.50
2019-05-22T15:48:15.259Z,53.60
2019-05-22T15:50:44.859Z,52.80
2019-05-22T15:53:15.204Z,51.80
2019-05-22T15:55:42.578Z,54.50
2019-05-22T15:58:12.051Z,56.70
2019-05-22T16:00:40.323Z,57.60
2019-05-22T16:03:09.779Z,57.20
2019-05-22T16:05:37.683Z,54.60
2019-05-22T16:08:06.243Z,53.30
2019-05-22T16:10:35.010Z,55.00
2019-05-22T16:13:03.272Z,57.60
2019-05-22T16:15:32.801Z,56.10
2019-05-22T16:18:11.012Z,54.50
2019-05-22T16:20:31.261Z,55.60
2019-05-22T16:22:59.192Z,55.60
2019-05-22T16:25:27.430Z,56.90
2019-05-22T16:27:55.434Z,58.40
2019-05-22T16:30:23.419Z,59.60
2019-05-22T16:32:51.632Z,58.30
2019-05-22T16:35:19.615Z,60.60
2019-05-22T16:37:47.601Z,60.00
2019-05-22T16:40:15.580Z,62.80
2019-05-22T16:42:43.480Z,65.80
2019-05-22T16:45:11.546Z,68.30
2019-05-22T16:47:40.346Z,66.50
2019-05-22T16:50:09.781Z,64.40
2019-05-22T16:52:37.802Z,65.10
2019-05-22T16:55:06.155Z,64.80
2019-05-22T16:57:34.108Z,64.60
2019-05-22T17:00:02.085Z,63.80
2019-05-22T17:02:30.083Z,67.30
2019-05-22T17:05:01.588Z,68.30
2019-05-22T17:07:28.408Z,66.30
2019-05-22T17:09:56.457Z,65.30
2019-05-22T17:12:25.554Z,64.70
2019-05-22T17:14:54.297Z,64.90
2019-05-22T17:17:22.297Z,67.30
2019-05-22T17:19:50.331Z,69.10
2019-05-22T17:22:18.777Z,66.40
2019-05-22T17:24:46.756Z,69.00
2019-05-22T17:27:15.276Z,70.00
2019-05-22T17:29:44.175Z,69.80
2019-05-22T17:32:12.611Z,70.00
2019-05-22T17:34:40.464Z,71.50
2019-05-22T17:37:11.801Z,72.10
2019-05-22T17:39:41.017Z,74.30
2019-05-22T17:42:09.046Z,74.20
2019-05-22T17:44:38.035Z,75.40
2019-05-22T17:47:06.733Z,76.70
2019-05-22T17:49:35.418Z,75.50
2019-05-22T17:52:05.252Z,77.00
2019-05-22T17:54:33.422Z,82.40
2019-05-22T17:57:02.809Z,90.90
2019-05-22T17:59:31.124Z,91.70
2019-05-22T18:01:59.295Z,94.20
2019-05-22T18:04:27.234Z,95.10
2019-05-22T18:06:55.443Z,95.40
2019-05-22T18:09:23.402Z,96.00
2019-05-22T18:11:51.699Z,96.00
2019-05-22T18:14:19.644Z,96.30
2019-05-22T18:16:47.583Z,96.80
2019-05-22T18:19:15.736Z,98.40
2019-05-22T18:21:43.686Z,98.70
2019-05-22T18:24:11.627Z,99.30
2019-05-22T18:26:39.590Z,99.90
2019-05-22T18:29:07.558Z,99.90
2019-05-22T18:31:35.591Z,99.90
2019-05-22T18:34:03.474Z,99.90
2019-05-22T18:36:31.366Z,99.90
2019-05-22T18:38:59.279Z,99.90
2019-05-22T18:41:27.152Z,99.90
2019-05-22T18:43:55.623Z,99.90
2019-05-22T18:46:23.672Z,99.90
2019-05-22T18:48:51.712Z,99.90
2019-05-22T18:51:19.690Z,99.90
2019-05-22T18:53:47.641Z,99.90
2019-05-22T18:56:15.680Z,99.90
2019-05-22T18:58:44.966Z,99.90
2019-05-22T19:01:16.206Z,99.90
2019-05-22T19:03:42.710Z,99.90
2019-05-22T19:06:10.617Z,99.90
2019-05-22T19:08:38.688Z,99.90
2019-05-22T19:11:06.691Z,99.90
2019-05-22T19:13:34.713Z,99.90
2019-05-22T19:16:02.711Z,99.90
2019-05-22T19:18:30.978Z,99.90
2019-05-22T19:20:58.958Z,99.90
2019-05-22T19:23:31.625Z,99.90
2019-05-22T19:25:59.527Z,99.90
2019-05-22T19:28:42.287Z,99.90
2019-05-22T19:30:57.144Z,99.90
2019-05-22T19:33:25.147Z,99.90
2019-05-22T19:35:53.153Z,99.90
2019-05-22T19:38:22.955Z,99.90
2019-05-22T19:40:51.164Z,99.90
2019-05-22T19:43:19.262Z,99.90
2019-05-22T19:45:47.303Z,99.90
2019-05-22T19:48:15.879Z,99.90
2019-05-22T19:50:43.900Z,99.90
2019-05-22T19:53:18.830Z,99.90
2019-05-22T19:55:41.974Z,99.90
2019-05-22T19:58:10.674Z,99.90
2019-05-22T20:00:38.684Z,99.90
2019-05-22T20:03:07.250Z,99.90
2019-05-22T20:05:36.747Z,99.90
2019-05-22T20:08:05.095Z,99.90
2019-05-22T20:10:33.513Z,99.90
2019-05-22T20:13:01.459Z,99.90
2019-05-22T20:15:29.798Z,99.90
2019-05-22T20:17:57.696Z,99.90
2019-05-22T20:20:25.709Z,99.90
2019-05-22T20:22:55.168Z,99.90
2019-05-22T20:25:23.462Z,99.90
2019-05-22T20:27:51.595Z,99.90
2019-05-22T20:30:20.526Z,99.90
2019-05-22T20:32:49.332Z,99.90
2019-05-22T20:35:17.673Z,99.90
2019-05-22T20:37:46.000Z,99.90
2019-05-22T20:40:14.412Z,99.90
2019-05-22T20:42:42.609Z,99.90
2019-05-22T20:45:10.778Z,99.90
2019-05-22T20:47:39.373Z,99.90
2019-05-22T20:50:08.781Z,99.90
2019-05-22T20:52:37.188Z,99.90
2019-05-22T20:55:06.730Z,99.90
2019-05-22T20:57:35.840Z,99.90
2019-05-22T21:00:04.266Z,99.90
2019-05-22T21:02:34.202Z,99.90
2019-05-22T21:05:03.565Z,99.90
2019-05-22T21:07:31.777Z,99.90
2019-05-22T21:09:59.897Z,99.90
2019-05-22T21:12:28.473Z,99.90
2019-05-22T21:14:56.351Z,99.90
2019-05-22T21:17:26.301Z,99.90
2019-05-22T21:19:54.175Z,99.90
2019-05-22T21:22:23.381Z,99.90
2019-05-22T21:24:51.698Z,99.90
2019-05-22T21:27:21.425Z,99.90
2019-05-22T21:29:49.379Z,99.90
2019-05-22T21:32:19.065Z,99.90
2019-05-22T21:34:47.246Z,99.90
2019-05-22T21:37:15.704Z,99.90
2019-05-22T21:39:43.996Z,99.90
2019-05-22T21:42:12.706Z,99.90
2019-05-22T21:44:41.037Z,99.90
2019-05-22T21:47:10.396Z,99.90
2019-05-22T21:49:38.868Z,99.90
2019-05-22T21:52:08.552Z,99.90
2019-05-22T21:54:36.503Z,99.90
2019-05-22T21:57:05.404Z,99.90
2019-05-22T21:59:33.371Z,99.90
2019-05-22T22:02:24.159Z,99.90
2019-05-22T22:04:53.242Z,99.90
2019-05-22T22:07:21.181Z,99.90
2019-05-22T22:09:49.162Z,99.90
2019-05-22T22:12:17.002Z,99.90
2019-05-22T22:14:45.334Z,99.90
2019-05-22T22:17:14.773Z,99.90
2019-05-22T22:19:42.802Z,99.90
2019-05-22T22:22:11.530Z,99.90
2019-05-22T22:24:39.903Z,99.90
2019-05-22T22:27:07.899Z,99.90
2019-05-22T22:29:36.509Z,99.90
2019-05-22T22:32:06.103Z,99.90
2019-05-22T22:34:34.354Z,99.90
2019-05-22T22:37:02.432Z,99.90
2019-05-22T22:39:30.370Z,99.90
2019-05-22T22:41:59.747Z,99.90
2019-05-22T22:44:28.583Z,99.90
2019-05-22T22:47:00.993Z,99.90
2019-05-22T22:49:28.959Z,99.90
2019-05-22T22:51:57.379Z,99.90
2019-05-22T22:54:25.934Z,99.90
2019-05-22T22:56:54.114Z,99.90
2019-05-22T22:59:22.487Z,99.90
2019-05-22T23:01:52.670Z,99.90
2019-05-22T23:04:21.397Z,99.90
2019-05-22T23:06:49.981Z,99.90
2019-05-22T23:09:19.616Z,99.90
2019-05-22T23:11:47.602Z,99.90
2019-05-22T23:14:16.190Z,99.90
2019-05-22T23:16:44.080Z,99.90
2019-05-22T23:19:13.239Z,99.90
2019-05-22T23:21:41.204Z,99.90
2019-05-22T23:24:10.733Z,99.90
2019-05-22T23:26:40.433Z,99.90
2019-05-22T23:29:08.612Z,99.90
2019-05-22T23:31:38.368Z,99.90
2019-05-22T23:34:06.437Z,99.90
2019-05-22T23:36:34.813Z,99.90
2019-05-22T23:39:04.185Z,99.90
2019-05-22T23:41:32.445Z,99.90
2019-05-22T23:44:00.799Z,99.90
2019-05-22T23:46:30.460Z,99.90
2019-05-22T23:48:59.236Z,99.90
2019-05-22T23:51:27.136Z,99.90
2019-05-22T23:53:55.048Z,99.90
2019-05-22T23:56:22.915Z,99.90
2019-05-22T23:58:53.210Z,99.90
